Latest Weather Observations for Tennant Creek

IDD60801

Issued at 7:35 pm CST Wednesday 16 April 2014 (issued every 30 minutes, with the page automatically refreshed every 10 minutes)

About weather observations | Map of weather stations | Latest weather observations for NT | Other Formats
Station Details ID: 015135 Name: TENNANT CREEK AIRPORT Lat: -19.64 Lon: 134.18 Height: 375.7 m
Data from the previous 72 hours. | See also: Recent months at Tennant Creek
Date/Time
CST
Temp
°C
App
Temp
°C
Dew
Point
Rel
Hum
%
Delta-T
°C
Wind Press
QNH
hPa
Press
MSL
hPa
Rain
since 9 am
mm
Dir
 
Spd
km/h
Gust
km/h
Spd
kts
Gust
kts
16/07:30pm 27.3 25.1 7.7 29 10.7 ESE 9 13 5 7 1014.8 - 0.0
16/07:00pm 27.8 25.5 7.4 27 11.1 ESE 9 13 5 7 1014.6 - 0.0
16/06:30pm 28.9 26.3 7.6 26 11.7 E 11 15 6 8 1014.3 - 0.0
16/06:00pm 30.0 26.8 7.0 23 12.6 ESE 13 20 7 11 1014.1 1011.9 0.0
16/05:30pm 30.7 26.7 6.8 22 13.1 ESE 17 24 9 13 1013.9 - 0.0
16/05:00pm 31.2 27.0 7.4 22 13.2 E 19 22 10 12 1013.6 - 0.0
16/04:30pm 31.4 27.5 7.2 22 13.4 E 17 24 9 13 1013.4 - 0.0
16/04:00pm 30.9 26.4 6.8 22 13.2 ESE 20 32 11 17 1013.3 - 0.0
16/03:30pm 31.2 26.8 6.5 21 13.5 SE 19 30 10 16 1013.4 - 0.0
16/03:00pm 31.3 27.0 7.0 22 13.4 SE 19 33 10 18 1013.7 1011.5 0.0
16/02:30pm 31.3 27.3 6.7 21 13.5 E 17 26 9 14 1014.0 - 0.0
16/02:00pm 31.0 26.2 5.8 20 13.6 E 20 30 11 16 1014.3 - 0.0
16/01:30pm 30.6 25.1 5.9 21 13.3 E 24 35 13 19 1014.7 - 0.0
16/01:00pm 30.3 23.9 5.3 20 13.3 ESE 28 33 15 18 1015.3 - 0.0
16/12:30pm 29.9 23.6 5.5 21 13.0 ESE 28 41 15 22 1015.8 - 0.0
16/12:00pm 28.8 22.5 5.6 23 12.3 E 28 43 15 23 1016.2 1014.0 0.0
16/11:40am 29.1 22.4 5.6 22 12.5 E 30 48 16 26 1016.6 - 0.0
16/11:30am 28.3 20.6 5.3 23 12.1 E 35 50 19 27 1016.7 - 0.0
16/11:05am 27.9 20.9 5.8 24 11.7 ESE 32 50 17 27 1017.0 - 0.0
16/11:00am 27.3 20.1 5.9 25 11.3 E 33 50 18 27 1017.0 - 0.0
16/10:53am 28.3 21.3 5.9 24 11.9 E 32 50 17 27 1017.0 - 0.0
16/10:30am 27.1 19.1 5.9 26 11.2 E 37 48 20 26 1017.3 - 0.0
16/10:00am 25.7 18.5 5.8 28 10.4 ESE 33 46 18 25 1017.3 - 0.0
16/09:30am 25.3 17.4 6.0 29 10.1 ESE 37 57 20 31 1017.3 - 0.0
16/09:24am 25.2 18.0 5.8 28 10.1 ESE 33 52 18 28 1017.4 - 0.0
16/09:00am 24.4 17.4 5.9 30 9.6 ESE 32 46 17 25 1017.2 1015.0 0.0
16/08:31am 23.2 15.6 6.0 33 8.9 ESE 35 54 19 29 1017.0 - 0.0
16/08:30am 23.2 15.6 6.0 33 8.9 ESE 35 48 19 26 1017.0 - 0.0
16/08:10am 22.9 16.3 6.1 33 8.7 ESE 30 50 16 27 1016.9 - 0.0
16/08:00am 22.5 16.3 6.0 34 8.5 ESE 28 44 15 24 1016.8 - 0.0
16/07:30am 21.7 15.5 6.1 36 8.0 ESE 28 41 15 22 1016.7 - 0.0
16/07:00am 21.3 15.3 5.5 35 8.0 ESE 26 39 14 21 1016.5 - 0.0
16/06:30am 21.4 15.4 5.4 35 8.1 ESE 26 41 14 22 1016.1 - 0.0
16/06:00am 21.5 16.6 5.2 34 8.2 ESE 20 35 11 19 1015.8 1013.5 0.0
16/05:30am 21.9 16.6 5.0 33 8.5 ESE 22 30 12 16 1015.5 - 0.0
16/05:00am 22.3 17.4 5.1 32 8.7 SE 20 32 11 17 1015.3 - 0.0
16/04:30am 22.3 17.1 5.4 33 8.6 SE 22 32 12 17 1015.0 - 0.0
16/04:00am 22.6 17.7 5.3 32 8.8 SE 20 30 11 16 1015.1 - 0.0
16/03:30am 22.9 18.2 5.2 31 9.0 SE 19 28 10 15 1015.0 - 0.0
16/03:00am 23.0 18.2 4.8 30 9.2 SE 19 28 10 15 1015.0 1012.7 0.0
16/02:30am 23.4 18.0 4.6 29 9.5 ESE 22 30 12 16 1014.8 - 0.0
16/02:00am 23.8 19.0 4.7 29 9.7 ESE 19 28 10 15 1015.1 - 0.0
16/01:30am 23.9 19.6 5.1 29 9.6 ESE 17 28 9 15 1015.2 - 0.0
16/01:00am 24.0 19.8 5.9 31 9.4 SE 17 24 9 13 1015.3 - 0.0
16/12:30am 24.0 20.0 6.7 33 9.1 SE 17 24 9 13 1015.4 - 0.0
16/12:00am 24.2 21.1 7.3 34 9.0 SE 13 20 7 11 1015.6 1013.3 0.0
 
Date/Time
CST
Temp
°C
App
Temp
°C
Dew
Point
Rel
Hum
%
Delta-T
°C
Wind Press
QNH
hPa
Press
MSL
hPa
Rain
since 9 am
mm
Dir
 
Spd
km/h
Gust
km/h
Spd
kts
Gust
kts
15/11:30pm 24.3 20.9 7.7 34 8.9 SE 15 22 8 12 1015.8 - 0.0
15/11:00pm 24.6 21.6 7.9 34 9.0 ESE 13 20 7 11 1016.0 - 0.0
15/10:30pm 25.2 22.2 7.5 32 9.5 ESE 13 20 7 11 1015.9 - 0.0
15/10:00pm 25.5 22.5 7.7 32 9.6 SE 13 17 7 9 1015.7 - 0.0
15/09:30pm 25.8 22.4 7.7 31 9.8 SE 15 22 8 12 1015.6 - 0.0
15/09:00pm 26.2 22.3 7.2 30 10.2 SE 17 24 9 13 1015.6 1013.3 0.0
15/08:30pm 26.3 22.9 7.7 30 10.1 SE 15 22 8 12 1015.3 - 0.0
15/08:00pm 26.4 23.4 7.9 31 10.1 SE 13 20 7 11 1014.8 - 0.0
15/07:30pm 27.0 24.5 8.0 30 10.4 SE 11 13 6 7 1014.3 - 0.0
15/07:00pm 27.6 25.3 7.6 28 10.9 SE 9 13 5 7 1014.1 - 0.0
15/06:30pm 28.4 25.8 7.6 27 11.4 SE 11 15 6 8 1013.7 - 0.0
15/06:00pm 29.4 26.3 7.4 25 12.1 SE 13 20 7 11 1013.4 1011.1 0.0
15/05:30pm 30.0 26.4 6.7 23 12.7 ESE 15 22 8 12 1013.2 - 0.0
15/05:00pm 30.4 27.1 6.5 22 13.0 SE 13 22 7 12 1013.0 - 0.0
15/04:30pm 30.8 27.6 6.9 22 13.1 SE 13 20 7 11 1013.0 - 0.0
15/04:00pm 30.4 27.6 7.1 23 12.8 SE 11 17 6 9 1013.0 - 0.0
15/03:30pm 30.9 27.3 6.8 22 13.2 SSE 15 26 8 14 1013.1 - 0.0
15/03:00pm 31.1 28.0 7.2 22 13.2 SE 13 24 7 13 1013.2 1010.9 0.0
15/02:30pm 30.0 27.3 7.5 24 12.4 S 11 17 6 9 1013.6 - 0.0
15/02:00pm 30.0 27.1 8.1 25 12.2 ESE 13 24 7 13 1014.0 - 0.0
15/01:30pm 29.8 25.4 7.2 24 12.4 SE 20 30 11 16 1014.5 - 0.0
15/01:00pm 29.5 25.2 7.2 24 12.2 ESE 19 30 10 16 1015.0 - 0.0
15/12:30pm 29.1 23.8 6.8 24 12.1 E 24 33 13 18 1015.5 - 0.0
15/12:00pm 28.8 23.1 6.8 25 11.9 E 26 43 14 23 1015.9 1013.6 0.0
15/11:30am 28.7 23.0 6.7 25 11.9 ESE 26 41 14 22 1016.4 - 0.0
15/11:00am 27.8 21.7 6.5 26 11.4 ESE 28 41 15 22 1016.8 - 0.0
15/10:30am 26.6 19.8 6.8 28 10.6 E 32 41 17 22 1017.1 - 0.0
15/10:00am 25.8 19.4 6.8 29 10.1 ESE 30 41 16 22 1017.1 - 0.0
15/09:30am 24.8 17.7 6.6 31 9.6 ESE 33 46 18 25 1017.1 - 0.0
15/09:00am 23.9 17.5 7.1 34 8.9 ESE 30 46 16 25 1016.9 1014.7 0.0
15/08:52am 23.4 17.4 7.1 35 8.6 SE 28 46 15 25 1016.8 - 0.0
15/08:30am 23.0 16.7 7.6 37 8.2 ESE 30 44 16 24 1016.6 - 0.0
15/08:00am 21.8 15.9 7.3 39 7.6 ESE 28 44 15 24 1016.3 - 0.0
15/07:30am 20.7 16.3 7.5 42 6.9 SE 20 30 11 16 1016.1 - 0.0
15/07:00am 19.7 15.9 7.4 45 6.4 SE 17 24 9 13 1015.8 - 0.0
15/06:30am 19.3 15.9 7.8 47 6.0 SE 15 20 8 11 1015.5 - 0.0
15/06:00am 19.7 15.9 7.6 45 6.3 SE 17 24 9 13 1015.2 1012.9 0.0
15/05:30am 20.0 15.8 7.5 44 6.5 SE 19 26 10 14 1015.0 - 0.0
15/05:00am 20.3 17.0 8.0 45 6.5 SE 15 22 8 12 1014.7 - 0.0
15/04:30am 20.6 16.9 7.9 44 6.7 SE 17 24 9 13 1014.5 - 0.0
15/04:00am 20.9 17.6 8.1 43 6.8 SE 15 20 8 11 1014.4 - 0.0
15/03:30am 21.5 18.5 7.9 41 7.2 SE 13 17 7 9 1014.2 - 0.0
15/03:00am 22.1 19.1 7.8 39 7.6 ESE 13 20 7 11 1014.2 1012.0 0.0
15/02:30am 22.8 19.0 7.5 37 8.1 SE 17 26 9 14 1014.2 - 0.0
15/02:00am 22.6 19.4 8.3 40 7.7 SE 15 26 8 14 1014.2 - 0.0
15/01:30am 22.4 19.8 9.2 43 7.2 SSE 13 22 7 12 1014.2 - 0.0
15/01:00am 23.2 20.6 9.4 41 7.6 SSE 13 20 7 11 1014.3 - 0.0
15/12:30am 23.4 20.9 9.7 41 7.6 SSE 13 20 7 11 1014.4 - 0.0
15/12:00am 24.1 21.6 9.7 40 8.0 SSE 13 20 7 11 1014.5 1012.3 0.0
 
Date/Time
CST
Temp
°C
App
Temp
°C
Dew
Point
Rel
Hum
%
Delta-T
°C
Wind Press
QNH
hPa
Press
MSL
hPa
Rain
since 9 am
mm
Dir
 
Spd
km/h
Gust
km/h
Spd
kts
Gust
kts
14/11:30pm 24.4 22.5 10.4 41 7.9 SSE 11 17 6 9 1014.7 - 0.0
14/11:00pm 23.9 21.9 10.1 41 7.7 SSE 11 17 6 9 1015.0 - 0.0
14/10:30pm 24.5 22.7 9.3 38 8.4 SSE 9 13 5 7 1015.1 - 0.0
14/10:00pm 24.5 23.3 10.3 40 8.0 SSE 7 11 4 6 1015.1 - 0.0
14/09:30pm 25.1 23.7 9.4 37 8.7 SSE 7 9 4 5 1015.0 - 0.0
14/09:00pm 25.7 23.8 9.1 35 9.2 S 9 9 5 5 1014.7 1012.5 0.0
14/08:30pm 26.0 24.0 8.8 33 9.5 S 9 11 5 6 1014.3 - 0.0
14/08:00pm 25.3 25.0 10.2 38 8.5 ESE 2 6 1 3 1013.9 - 0.0
14/07:30pm 25.6 24.8 9.7 36 8.9 E 4 6 2 3 1013.4 - 0.0
14/07:00pm 26.4 24.9 9.2 33 9.6 E 7 11 4 6 1013.0 - 0.0
14/06:30pm 27.2 25.6 8.6 31 10.3 ESE 7 11 4 6 1012.6 - 0.0
14/06:00pm 28.2 25.9 7.6 27 11.3 SE 9 15 5 8 1012.4 1010.1 0.0
14/05:30pm 28.7 25.8 6.7 25 11.9 SE 11 17 6 9 1011.9 - 0.0
14/05:00pm 29.1 26.0 7.1 25 12.0 ESE 13 24 7 13 1011.7 - 0.0
14/04:30pm 29.5 27.5 7.3 24 12.2 E 7 11 4 6 1011.5 - 0.0
14/04:00pm 28.9 27.0 6.8 24 12.0 ESE 6 11 3 6 1011.6 - 0.0
14/03:30pm 29.2 26.0 6.7 24 12.2 E 13 20 7 11 1011.7 - 0.0
14/03:00pm 28.6 26.1 6.5 24 11.9 SSE 9 22 5 12 1011.9 1009.7 0.0
14/02:30pm 29.3 26.8 6.6 24 12.3 S 9 20 5 11 1012.2 - 0.0
14/02:00pm 28.5 25.5 7.8 27 11.4 ENE 13 24 7 13 1012.6 - 0.0
14/01:30pm 28.2 25.7 6.7 25 11.6 ENE 9 17 5 9 1013.0 - 0.0
14/01:00pm 28.0 26.5 8.6 29 10.8 ESE 6 20 3 11 1013.4 - 0.0
14/12:30pm 26.9 24.7 7.9 30 10.4 E 9 17 5 9 1014.1 - 0.0
14/12:00pm 27.0 24.1 8.0 30 10.4 SE 13 22 7 12 1014.5 1012.3 0.0
14/11:30am 26.4 22.5 8.6 32 9.8 E 19 28 10 15 1015.1 - 0.0
14/11:00am 26.0 21.9 8.5 33 9.6 E 20 32 11 17 1015.7 - 0.0
14/10:30am 25.6 20.9 9.2 35 9.1 ESE 24 33 13 18 1015.9 - 0.0
14/10:00am 24.9 20.9 8.9 36 8.8 ESE 20 32 11 17 1016.0 - 0.0
14/09:30am 24.0 18.9 9.1 38 8.2 ESE 26 35 14 19 1015.9 - 0.0
14/09:00am 23.1 20.4 17.5 70 3.5 ESE 28 39 15 21 1015.6 1013.3 0.0
14/08:30am 22.0 19.6 16.3 70 3.5 ESE 24 39 13 21 1015.3 - 0.0
14/08:00am 20.9 18.2 14.5 67 3.8 SE 22 33 12 18 1015.0 - 0.0
14/07:30am 19.8 17.4 12.8 64 4.0 SE 17 24 9 13 1014.6 - 0.0
14/07:00am 19.1 16.1 12.0 63 4.0 SE 19 28 10 15 1014.3 - 0.0
14/06:30am 19.0 16.4 11.9 63 4.0 SE 17 24 9 13 1014.0 - 0.0
14/06:00am 19.2 16.5 11.7 62 4.2 SE 17 26 9 14 1013.8 1011.6 0.0
14/05:30am 19.2 16.5 11.7 62 4.2 SE 17 24 9 13 1013.7 - 0.0
14/05:00am 19.7 17.4 11.9 60 4.4 SE 15 26 8 14 1013.5 - 0.0
14/04:30am 19.9 16.9 12.0 60 4.5 ESE 19 24 10 13 1013.4 - 0.0
14/04:00am 20.2 17.6 11.9 59 4.7 ESE 17 26 9 14 1013.4 - 0.0
14/03:30am 20.6 17.6 11.8 57 5.0 ESE 19 26 10 14 1013.3 - 0.0
14/03:00am 20.8 17.5 11.6 55 5.2 ESE 20 28 11 15 1013.4 1011.1 0.0
14/02:30am 20.9 18.1 11.5 55 5.3 ESE 17 24 9 13 1013.4 - 0.0
14/02:00am 20.7 18.6 11.0 53 5.4 ESE 13 20 7 11 1013.3 - 0.0
14/01:30am 20.9 18.8 11.1 53 5.5 SE 13 17 7 9 1013.5 - 0.0
14/01:00am 20.8 18.1 10.5 51 5.7 SE 15 22 8 12 1013.9 - 0.0
14/12:30am 21.2 18.5 10.4 50 6.0 SE 15 22 8 12 1014.1 - 0.0
14/12:00am 21.5 18.8 10.3 49 6.2 SE 15 24 8 13 1014.1 1011.9 0.0
 
Date/Time
CST
Temp
°C
App
Temp
°C
Dew
Point
Rel
Hum
%
Delta-T
°C
Wind Press
QNH
hPa
Press
MSL
hPa
Rain
since 9 am
mm
Dir
 
Spd
km/h
Gust
km/h
Spd
kts
Gust
kts
13/11:30pm 22.1 19.9 10.7 48 6.4 SSE 13 20 7 11 1014.2 - 0.0
13/11:00pm 22.5 19.9 10.7 47 6.6 SE 15 22 8 12 1014.3 - 0.0
13/10:30pm 22.8 20.6 10.9 47 6.7 SE 13 17 7 9 1014.4 - 0.0
13/10:00pm 23.3 21.2 11.1 46 6.9 SE 13 20 7 11 1014.3 - 0.0
13/09:30pm 24.2 21.2 10.8 43 7.6 SE 17 24 9 13 1014.2 - 0.0
13/09:00pm 24.8 23.0 10.9 41 7.9 SE 11 17 6 9 1014.1 1011.9 0.0
13/08:30pm 25.9 23.5 10.1 37 8.9 SE 13 22 7 12 1013.9 - 0.0
13/08:00pm 25.8 23.9 10.5 38 8.7 SSE 11 17 6 9 1013.4 - 0.0

Other Formats:

Comma delimited format used in spreadsheet applications
http://www.bom.gov.au/fwo/IDD60801/IDD60801.94238.axf

JavaScript Object Notation format (JSON) in row-major order
http://www.bom.gov.au/fwo/IDD60801/IDD60801.94238.json